Aeroporto :
LOGIN :

Iscrizione | Disclaimer

   EN    FR    IT 

 










Sommario :    VFR   VFR Marginale   IFR   IFR Intensivo   IFR Molto Intensivo
Visibilità : 
Base nubi : 
>= 8 km
>= 3000ft
5 / 8 km
1000 / 3000 ft
1500m / 5 km
500 / 1000 ft
800 / 1500m
200 / 500 ft
< 800m
< 200 ft
Simboli :   Temporali  Nebbia  Neve Forte  Precipitazioni Forti  Vento > 20 kt
SIGMETs :   Varie  Temporali  Ghiacco  Turbolenza  Onda orograficha  Ceneri Vulcaniche






- Altitudine del aeroporto : 18 ft
- Codice IATA : AJA


LFKJ - Ajaccio

ULTIMO METAR :
  • 050700Z AUTO 28013KT 9999 FEW038/// SCT064/// ///CB 21/14 Q1002 BECMG SCT030 BKN060

METARs OBSOLETI :
  • 050630Z AUTO 27009KT 9999 FEW026/// BKN110/// ///CB 20/15 Q1001 BECMG SCT030 BKN060
  • 050600Z AUTO 26013KT 9999 FEW026/// BKN072/// BKN092/// ///CB 20/15 Q1001 TEMPO SHRA BECMG SCT030 BKN060
  • 050530Z AUTO 26014KT 9999 FEW030/// BKN072/// BKN100/// ///CB 20/15 Q1000 TEMPO SHRA BECMG SCT030 BKN060
  • 050500Z AUTO 25012KT 9999 FEW026/// SCT064/// BKN074/// ///CB 19/15 Q1000 TEMPO SHRA
  • 050430Z AUTO 26012KT 9999 FEW028/// BKN052/// BKN066/// ///CB 19/15 Q1000 TEMPO SHRA
  • 050400Z AUTO 26010KT 9999 FEW032/// SCT042/// BKN086/// ///CB 19/15 Q1000 TEMPO SHRA

TAF AMD TAF LFKJ
Valido dal 05 a 05 ore il 06 a 03 ore UTC


050552Z 0505/0603 28012KT 9999 SCT030 BKN060
PROB30
TEMPO 0505/0507 SHRA SCT030CB
BECMG 0518/0520 05005KT
ATIS : +33 4 95 23 59 85



MetMap, La meteo Aeronautica in un colpo d'occhio ! - Copyright ORBIFLY Dicembre 2007 - Disclaimer

ORBIFLY MET'MAP TEAM :

Programmazione e sviluppo : Alexandra Zaïnal
Concezione : Baudouin d'Aumeries
Aiuto per la programmazione : Marc-Olivier Méhu
Supporto tecnico e logistico : Manuel Goepfert
Aiuto per la traduzione : Arnaldo La Scala

Contatto : metmap@orbifly.com




FONTI E CREDITI :

   NOAA